createdAt,value
2024-04-12T00:01:48.028Z,18.60
2024-04-12T00:04:19.912Z,18.60
2024-04-12T00:06:55.119Z,18.70
2024-04-12T00:09:24.605Z,18.60
2024-04-12T00:11:56.049Z,18.70
2024-04-12T00:14:23.908Z,18.60
2024-04-12T00:16:54.446Z,18.60
2024-04-12T00:19:26.452Z,18.60
2024-04-12T00:21:57.098Z,18.60
2024-04-12T00:24:28.725Z,18.60
2024-04-12T00:26:56.110Z,18.60
2024-04-12T00:29:27.939Z,18.60
2024-04-12T00:32:06.841Z,18.60
2024-04-12T00:34:40.101Z,18.60
2024-04-12T00:37:08.978Z,18.60
2024-04-12T00:39:40.522Z,18.50
2024-04-12T00:42:09.090Z,18.50
2024-04-12T00:44:41.087Z,18.60
2024-04-12T00:47:21.448Z,18.50
2024-04-12T00:49:52.405Z,18.40
2024-04-12T00:52:28.684Z,18.40
2024-04-12T00:55:08.163Z,18.40
2024-04-12T00:57:37.658Z,18.40
2024-04-12T01:00:11.038Z,18.40
2024-04-12T01:02:42.673Z,18.40
2024-04-12T01:05:14.873Z,18.30
2024-04-12T01:07:51.048Z,18.40
2024-04-12T01:10:27.096Z,18.40
2024-04-12T01:12:57.148Z,18.40
2024-04-12T01:15:38.594Z,18.30
2024-04-12T01:18:13.350Z,18.30
2024-04-12T01:20:45.100Z,18.30
2024-04-12T01:23:17.562Z,18.20
2024-04-12T01:25:46.803Z,18.10
2024-04-12T01:28:17.748Z,18.20
2024-04-12T01:30:47.951Z,18.20
2024-04-12T01:33:15.515Z,18.10
2024-04-12T01:35:43.543Z,18.10
2024-04-12T01:38:20.632Z,18.10
2024-04-12T01:40:59.779Z,18.00
2024-04-12T01:43:29.798Z,18.10
2024-04-12T01:45:57.360Z,18.00
2024-04-12T01:48:24.656Z,17.90
2024-04-12T01:50:54.672Z,17.90
2024-04-12T01:53:24.540Z,17.90
2024-04-12T01:55:52.530Z,17.90
2024-04-12T01:58:21.717Z,17.80
2024-04-12T02:00:50.983Z,17.80
2024-04-12T02:03:19.913Z,17.80
2024-04-12T02:05:50.117Z,17.80
2024-04-12T02:08:20.924Z,17.70
2024-04-12T02:10:50.539Z,17.70
2024-04-12T02:13:19.884Z,17.60
2024-04-12T02:15:48.051Z,17.60
2024-04-12T02:18:22.122Z,17.60
2024-04-12T02:20:53.008Z,17.50
2024-04-12T02:23:20.910Z,17.50
2024-04-12T02:25:51.013Z,17.50
2024-04-12T02:28:19.264Z,17.50
2024-04-12T02:30:54.862Z,17.50
2024-04-12T02:33:26.230Z,17.40
2024-04-12T02:36:00.581Z,17.40
2024-04-12T02:38:29.696Z,17.40
2024-04-12T02:40:59.547Z,17.40
2024-04-12T02:43:26.833Z,17.40
2024-04-12T02:45:55.200Z,17.30
2024-04-12T02:48:23.413Z,17.20
2024-04-12T02:50:57.603Z,17.30
2024-04-12T02:53:25.768Z,17.30
2024-04-12T02:56:03.503Z,17.10
2024-04-12T02:58:40.460Z,17.20
2024-04-12T03:01:12.306Z,17.10
2024-04-12T03:03:43.030Z,17.10
2024-04-12T03:06:11.526Z,17.10
2024-04-12T03:08:45.472Z,17.10
2024-04-12T03:11:24.172Z,17.10
2024-04-12T03:13:53.013Z,17.10
2024-04-12T03:16:21.908Z,17.00
2024-04-12T03:18:52.733Z,17.00
2024-04-12T03:21:23.662Z,17.00
2024-04-12T03:23:51.154Z,16.90
2024-04-12T03:26:20.231Z,16.90
2024-04-12T03:28:47.490Z,16.80
2024-04-12T03:31:14.946Z,16.80
2024-04-12T03:33:45.616Z,16.80
2024-04-12T03:36:30.478Z,16.80
2024-04-12T03:39:22.740Z,16.80
2024-04-12T03:41:58.795Z,16.70
2024-04-12T03:44:26.926Z,16.70
2024-04-12T03:46:54.658Z,16.80
2024-04-12T03:49:23.005Z,16.70
2024-04-12T03:51:51.987Z,16.70
2024-04-12T03:54:19.765Z,16.60
2024-04-12T03:56:53.285Z,16.70
2024-04-12T03:59:22.350Z,16.50
2024-04-12T04:01:49.618Z,16.60
2024-04-12T04:04:20.439Z,16.60
2024-04-12T04:06:51.641Z,16.60
2024-04-12T04:09:21.586Z,16.50
2024-04-12T04:11:49.714Z,16.50
2024-04-12T04:14:37.573Z,16.50
2024-04-12T04:17:04.729Z,16.50
2024-04-12T04:19:35.386Z,16.40
2024-04-12T04:22:07.016Z,16.40
2024-04-12T04:24:35.524Z,16.50
2024-04-12T04:27:04.228Z,16.40
2024-04-12T04:29:31.376Z,16.40
2024-04-12T04:31:59.085Z,16.40
2024-04-12T04:34:27.088Z,16.40
2024-04-12T04:36:58.170Z,16.40
2024-04-12T04:39:25.967Z,16.40
2024-04-12T04:41:54.545Z,16.40
2024-04-12T04:44:23.355Z,16.30
2024-04-12T04:46:51.527Z,16.40
2024-04-12T04:49:25.916Z,16.40
2024-04-12T04:51:53.004Z,16.40
2024-04-12T04:54:23.861Z,16.30
2024-04-12T04:56:51.152Z,16.40
2024-04-12T04:59:19.282Z,16.40
2024-04-12T05:01:50.250Z,16.40
2024-04-12T05:04:23.657Z,16.50
2024-04-12T05:06:53.241Z,16.40
2024-04-12T05:09:21.431Z,16.50
2024-04-12T05:11:51.473Z,16.50
2024-04-12T05:14:38.286Z,16.50
2024-04-12T05:17:10.507Z,16.50
2024-04-12T05:19:42.299Z,16.50
2024-04-12T05:22:11.986Z,16.60
2024-04-12T05:24:41.651Z,16.60
2024-04-12T05:27:13.339Z,16.60
2024-04-12T05:29:42.302Z,16.60
2024-04-12T05:32:11.666Z,16.60
2024-04-12T05:34:38.881Z,16.60
2024-04-12T05:37:05.950Z,16.70
2024-04-12T05:39:37.586Z,16.70
2024-04-12T05:42:06.785Z,16.80
2024-04-12T05:44:35.163Z,16.80
2024-04-12T05:47:02.922Z,16.90
2024-04-12T05:49:32.386Z,16.90
2024-04-12T05:52:02.605Z,16.90
2024-04-12T05:54:41.332Z,17.20
2024-04-12T05:57:09.008Z,17.30
2024-04-12T05:59:36.449Z,17.40
2024-04-12T06:02:07.401Z,17.50
2024-04-12T06:04:37.591Z,17.60
2024-04-12T06:07:12.722Z,17.50
2024-04-12T06:09:40.875Z,17.50
2024-04-12T06:12:08.665Z,17.60
2024-04-12T06:14:40.314Z,17.60
2024-04-12T06:17:10.704Z,17.70
2024-04-12T06:19:39.870Z,17.70
2024-04-12T06:22:14.739Z,17.90
2024-04-12T06:24:50.669Z,17.90
2024-04-12T06:27:31.147Z,18.00
2024-04-12T06:30:02.259Z,18.00
2024-04-12T06:32:29.619Z,18.20
2024-04-12T06:34:56.773Z,18.20
2024-04-12T06:37:23.753Z,18.30
2024-04-12T06:39:57.127Z,18.40
2024-04-12T06:42:24.336Z,18.40
2024-04-12T06:44:51.396Z,18.50
2024-04-12T06:47:20.068Z,18.60
2024-04-12T06:49:47.756Z,18.60
2024-04-12T06:52:21.771Z,18.70
2024-04-12T06:54:49.473Z,18.80
2024-04-12T06:57:26.796Z,18.90
2024-04-12T07:00:02.484Z,19.00
2024-04-12T07:02:31.947Z,19.10
2024-04-12T07:05:00.752Z,19.30
2024-04-12T07:07:30.306Z,19.30
2024-04-12T07:10:00.974Z,19.50
2024-04-12T07:12:29.187Z,19.70
2024-04-12T07:14:57.708Z,19.80
2024-04-12T07:17:27.379Z,20.00
2024-04-12T07:20:01.047Z,20.30
2024-04-12T07:22:29.046Z,20.60
2024-04-12T07:24:57.467Z,21.00
2024-04-12T07:27:29.673Z,21.40
2024-04-12T07:29:59.483Z,21.80
2024-04-12T07:32:37.328Z,22.10
2024-04-12T07:35:24.335Z,22.50
2024-04-12T07:37:59.561Z,22.90
2024-04-12T07:40:36.523Z,23.10
2024-04-12T07:43:11.243Z,23.40
2024-04-12T07:45:40.508Z,23.60
2024-04-12T07:48:37.073Z,23.90
2024-04-12T07:51:06.467Z,24.10
2024-04-12T07:53:37.813Z,24.10
2024-04-12T07:56:20.331Z,24.10
2024-04-12T07:59:02.902Z,24.20
2024-04-12T08:01:32.065Z,24.20
2024-04-12T08:04:06.757Z,24.10
2024-04-12T08:06:52.515Z,24.10
2024-04-12T08:09:26.076Z,24.00
2024-04-12T08:11:53.982Z,24.00
2024-04-12T08:14:22.396Z,23.80
2024-04-12T08:16:55.636Z,23.80
2024-04-12T08:19:23.722Z,23.80
2024-04-12T08:21:56.429Z,23.70
2024-04-12T08:24:28.736Z,23.80
2024-04-12T08:26:58.444Z,23.90
2024-04-12T08:29:27.827Z,23.80
2024-04-12T08:32:12.666Z,23.80
2024-04-12T08:34:46.508Z,23.90
2024-04-12T08:37:15.371Z,24.00
2024-04-12T08:39:54.419Z,24.00
2024-04-12T08:42:30.652Z,24.10
2024-04-12T08:45:00.440Z,24.10
2024-04-12T08:47:38.538Z,24.20
2024-04-12T08:50:08.706Z,24.30
2024-04-12T08:52:47.710Z,24.30
2024-04-12T08:55:18.786Z,24.50
2024-04-12T08:57:49.064Z,24.50
2024-04-12T09:00:26.581Z,24.50
2024-04-12T09:03:05.785Z,24.60
2024-04-12T09:05:38.348Z,24.60
2024-04-12T09:08:09.294Z,24.50
2024-04-12T09:10:37.551Z,24.50
2024-04-12T09:13:16.378Z,24.30
2024-04-12T09:15:47.309Z,24.40
2024-04-12T09:18:16.483Z,24.50
2024-04-12T09:20:47.036Z,24.50
2024-04-12T09:23:20.685Z,24.50
2024-04-12T09:25:56.677Z,24.40
2024-04-12T09:28:32.094Z,24.40
2024-04-12T09:31:18.754Z,24.50
2024-04-12T09:33:52.659Z,24.40
2024-04-12T09:36:41.212Z,24.50
2024-04-12T09:39:18.365Z,24.50
2024-04-12T09:41:55.574Z,24.50
2024-04-12T09:44:29.116Z,24.70
2024-04-12T09:47:19.257Z,24.70
2024-04-12T09:50:09.264Z,24.80
2024-04-12T09:52:55.738Z,24.80
2024-04-12T09:55:45.342Z,24.90
2024-04-12T09:58:31.785Z,24.90
2024-04-12T10:01:19.491Z,25.10
2024-04-12T10:04:07.045Z,25.00
2024-04-12T10:07:01.720Z,25.10
2024-04-12T10:09:51.087Z,25.10
2024-04-12T10:12:42.057Z,25.10
2024-04-12T10:15:28.629Z,25.20
2024-04-12T10:18:27.975Z,25.30
2024-04-12T10:21:27.732Z,25.30
2024-04-12T10:24:22.364Z,25.40
2024-04-12T10:27:07.896Z,25.40
2024-04-12T10:29:53.693Z,25.50
2024-04-12T10:32:46.119Z,25.50
2024-04-12T10:35:33.715Z,25.50
2024-04-12T10:38:01.036Z,25.60
2024-04-12T10:40:32.325Z,25.70
2024-04-12T10:42:59.831Z,25.80
2024-04-12T10:45:31.054Z,25.80
2024-04-12T10:48:00.862Z,25.80
2024-04-12T10:50:29.066Z,25.80
2024-04-12T10:52:59.203Z,25.80
2024-04-12T10:55:30.875Z,25.90
2024-04-12T10:57:58.620Z,25.90
2024-04-12T11:00:29.702Z,25.90
2024-04-12T11:03:08.894Z,26.00
2024-04-12T11:05:37.005Z,26.10
2024-04-12T11:08:16.722Z,26.10
2024-04-12T11:10:56.705Z,26.20
2024-04-12T11:13:30.956Z,26.10
2024-04-12T11:15:58.026Z,26.10
2024-04-12T11:18:44.087Z,26.20
2024-04-12T11:21:30.027Z,26.20
2024-04-12T11:24:22.586Z,26.30
2024-04-12T11:27:08.258Z,26.30
2024-04-12T11:29:57.766Z,26.40
2024-04-12T11:32:25.139Z,26.30
2024-04-12T11:34:53.290Z,26.40
2024-04-12T11:37:25.836Z,26.40
2024-04-12T11:39:54.599Z,26.40
2024-04-12T11:42:22.017Z,26.40
2024-04-12T11:44:49.911Z,26.50
2024-04-12T11:47:18.412Z,26.50
2024-04-12T11:49:47.215Z,26.50
2024-04-12T11:52:18.646Z,26.50
2024-04-12T11:54:53.524Z,26.60
2024-04-12T11:57:26.765Z,26.60
2024-04-12T12:00:00.302Z,26.60
2024-04-12T12:02:37.106Z,26.50
2024-04-12T12:05:07.322Z,26.60
2024-04-12T12:07:34.404Z,26.50
2024-04-12T12:10:05.246Z,26.60
2024-04-12T12:12:32.460Z,26.60
2024-04-12T12:14:59.966Z,26.60
2024-04-12T12:17:29.882Z,26.60
2024-04-12T12:19:59.778Z,26.70
2024-04-12T12:22:27.282Z,26.70
2024-04-12T12:24:54.680Z,26.70
2024-04-12T12:27:25.178Z,26.80
2024-04-12T12:29:55.917Z,26.70
2024-04-12T12:32:27.097Z,26.90
2024-04-12T12:34:54.843Z,26.80
2024-04-12T12:37:22.091Z,26.90
2024-04-12T12:39:49.458Z,26.90
2024-04-12T12:42:18.658Z,27.00
2024-04-12T12:44:45.952Z,27.00
2024-04-12T12:47:15.052Z,27.00
2024-04-12T12:49:47.809Z,27.10
2024-04-12T12:52:16.023Z,27.10
2024-04-12T12:54:44.567Z,27.10
2024-04-12T12:57:19.392Z,27.10
2024-04-12T12:59:46.798Z,27.00
2024-04-12T13:02:16.708Z,27.10
2024-04-12T13:04:44.983Z,27.00
2024-04-12T13:07:14.469Z,27.10
2024-04-12T13:09:41.493Z,27.10
2024-04-12T13:12:11.030Z,27.10
2024-04-12T13:14:41.884Z,27.10
2024-04-12T13:17:15.786Z,27.10
2024-04-12T13:19:43.419Z,27.10
2024-04-12T13:22:13.489Z,27.10
2024-04-12T13:24:41.658Z,27.10
2024-04-12T13:27:08.870Z,27.10
2024-04-12T13:29:38.171Z,27.10
2024-04-12T13:32:11.913Z,27.10
2024-04-12T13:34:39.267Z,27.20
2024-04-12T13:37:08.100Z,27.20
2024-04-12T13:39:38.288Z,27.10
2024-04-12T13:42:12.514Z,27.10
2024-04-12T13:44:58.914Z,27.10
2024-04-12T13:47:45.397Z,27.10
2024-04-12T13:50:31.327Z,27.10
2024-04-12T13:52:58.762Z,27.10
2024-04-12T13:55:26.059Z,27.10
2024-04-12T13:57:56.179Z,27.00
2024-04-12T14:00:31.899Z,27.00
2024-04-12T14:03:00.434Z,27.00
2024-04-12T14:05:35.901Z,27.00
2024-04-12T14:08:09.019Z,27.10
2024-04-12T14:10:39.424Z,27.10
2024-04-12T14:13:07.360Z,27.00
2024-04-12T14:15:36.616Z,27.00
2024-04-12T14:18:04.665Z,27.10
2024-04-12T14:20:33.824Z,27.20
2024-04-12T14:23:01.023Z,27.10
2024-04-12T14:25:30.748Z,27.10
2024-04-12T14:27:59.679Z,27.10
2024-04-12T14:30:26.776Z,27.10
2024-04-12T14:32:53.918Z,27.10
2024-04-12T14:35:21.899Z,27.10
2024-04-12T14:37:49.273Z,27.10
2024-04-12T14:40:23.518Z,27.10
2024-04-12T14:42:55.642Z,27.10
2024-04-12T14:45:25.584Z,27.10
2024-04-12T14:47:59.436Z,27.10
2024-04-12T14:50:36.079Z,27.00
2024-04-12T14:53:05.221Z,27.00
2024-04-12T14:55:32.619Z,26.90
2024-04-12T14:57:59.866Z,27.00
2024-04-12T15:00:27.734Z,27.00
2024-04-12T15:02:56.822Z,27.00
2024-04-12T15:05:43.485Z,27.00
2024-04-12T15:08:35.333Z,27.00
2024-04-12T15:11:22.984Z,27.00
2024-04-12T15:14:08.880Z,26.90
2024-04-12T15:16:54.385Z,26.90
2024-04-12T15:19:40.108Z,26.90
2024-04-12T15:22:25.712Z,26.90
2024-04-12T15:25:11.181Z,26.80
2024-04-12T15:27:56.790Z,26.80
2024-04-12T15:30:45.090Z,26.70
2024-04-12T15:33:30.905Z,26.70
2024-04-12T15:36:17.029Z,26.60
2024-04-12T15:39:02.974Z,26.60
2024-04-12T15:41:48.810Z,26.60
2024-04-12T15:44:37.235Z,26.60
2024-04-12T15:47:04.908Z,26.50
2024-04-12T15:49:44.333Z,26.50
2024-04-12T15:52:12.716Z,26.60
2024-04-12T15:55:09.030Z,26.60
2024-04-12T15:57:55.036Z,26.50
2024-04-12T16:00:40.661Z,26.40
2024-04-12T16:03:26.445Z,26.50
2024-04-12T16:06:12.059Z,26.40
2024-04-12T16:08:58.002Z,26.40
2024-04-12T16:11:25.149Z,26.30
2024-04-12T16:13:52.262Z,26.20
2024-04-12T16:16:22.719Z,26.30
2024-04-12T16:18:50.321Z,26.20
2024-04-12T16:21:17.637Z,26.20
2024-04-12T16:23:46.531Z,26.20
2024-04-12T16:26:13.655Z,26.20
2024-04-12T16:28:40.715Z,26.20
2024-04-12T16:31:07.812Z,26.10
2024-04-12T16:33:35.735Z,26.00
2024-04-12T16:36:06.978Z,26.00
2024-04-12T16:38:35.216Z,26.00
2024-04-12T16:41:03.819Z,25.90
2024-04-12T16:43:32.521Z,26.00
2024-04-12T16:46:00.190Z,25.90
2024-04-12T16:48:29.226Z,25.90
2024-04-12T16:50:56.351Z,25.80
2024-04-12T16:53:23.592Z,25.70
2024-04-12T16:55:50.679Z,25.70
2024-04-12T16:58:17.827Z,25.70
2024-04-12T17:00:46.691Z,25.50
2024-04-12T17:03:14.926Z,25.60
2024-04-12T17:05:41.902Z,25.50
2024-04-12T17:08:09.092Z,25.40
2024-04-12T17:10:36.051Z,25.40
2024-04-12T17:13:03.602Z,25.40
2024-04-12T17:15:30.828Z,25.40
2024-04-12T17:17:58.126Z,25.20
2024-04-12T17:20:25.229Z,25.20
2024-04-12T17:22:52.250Z,25.10
2024-04-12T17:25:20.450Z,25.10
2024-04-12T17:27:49.475Z,25.10
2024-04-12T17:30:17.127Z,25.00
2024-04-12T17:32:44.983Z,25.00
2024-04-12T17:35:12.548Z,24.90
2024-04-12T17:37:39.624Z,24.90
2024-04-12T17:40:09.449Z,24.90
2024-04-12T17:42:36.415Z,24.80
2024-04-12T17:45:05.309Z,24.70
2024-04-12T17:47:32.506Z,24.70
2024-04-12T17:49:59.534Z,24.60
2024-04-12T17:52:28.336Z,24.60
2024-04-12T17:54:55.390Z,24.50
2024-04-12T17:57:23.871Z,24.50
2024-04-12T17:59:52.338Z,24.40
2024-04-12T18:02:23.753Z,24.40
2024-04-12T18:04:51.051Z,24.30
2024-04-12T18:07:18.215Z,24.30
2024-04-12T18:09:46.080Z,24.30
2024-04-12T18:12:16.070Z,24.20
2024-04-12T18:14:43.339Z,24.20
2024-04-12T18:17:10.362Z,24.10
2024-04-12T18:19:39.890Z,24.00
2024-04-12T18:22:12.743Z,24.00
2024-04-12T18:24:39.777Z,23.80
2024-04-12T18:27:07.582Z,23.80
2024-04-12T18:29:34.772Z,23.80
2024-04-12T18:32:04.241Z,23.70
2024-04-12T18:34:31.207Z,23.60
2024-04-12T18:37:33.800Z,23.60
2024-04-12T18:40:19.844Z,23.50
2024-04-12T18:43:05.960Z,23.60
2024-04-12T18:45:33.218Z,23.50
2024-04-12T18:48:02.276Z,23.50
2024-04-12T18:50:29.602Z,23.50
2024-04-12T18:52:56.666Z,23.40
2024-04-12T18:55:25.317Z,23.40
2024-04-12T18:57:52.498Z,23.40
2024-04-12T19:00:19.758Z,23.30
2024-04-12T19:02:49.108Z,23.30
2024-04-12T19:05:17.283Z,23.20
2024-04-12T19:07:44.591Z,23.20
2024-04-12T19:10:11.867Z,23.10
2024-04-12T19:12:38.953Z,23.00
2024-04-12T19:15:06.537Z,23.00
2024-04-12T19:17:33.579Z,22.90
2024-04-12T19:20:00.670Z,22.90
2024-04-12T19:22:28.633Z,22.90
2024-04-12T19:24:55.731Z,22.80
2024-04-12T19:27:22.939Z,22.70
2024-04-12T19:29:50.125Z,22.80
2024-04-12T19:32:17.501Z,22.70
2024-04-12T19:34:45.079Z,22.70
2024-04-12T19:37:12.035Z,22.50
2024-04-12T19:39:39.057Z,22.50
2024-04-12T19:42:08.579Z,22.50
2024-04-12T19:44:38.164Z,22.50
2024-04-12T19:47:06.650Z,22.30
2024-04-12T19:49:36.516Z,22.30
2024-04-12T19:52:04.423Z,22.40
2024-04-12T19:54:31.738Z,22.30
2024-04-12T19:56:58.883Z,22.20
2024-04-12T19:59:25.921Z,22.20
2024-04-12T20:01:52.986Z,22.10
2024-04-12T20:04:20.950Z,22.00
2024-04-12T20:06:49.133Z,22.00
2024-04-12T20:09:16.236Z,21.90
2024-04-12T20:11:43.239Z,21.90
2024-04-12T20:14:10.274Z,21.80
2024-04-12T20:16:37.744Z,21.80
2024-04-12T20:19:05.563Z,21.80
2024-04-12T20:21:33.154Z,21.80
2024-04-12T20:24:00.182Z,21.70
2024-04-12T20:26:27.129Z,21.70
2024-04-12T20:28:54.131Z,21.70
2024-04-12T20:31:23.220Z,21.70
2024-04-12T20:34:04.510Z,21.70
2024-04-12T20:36:39.733Z,21.60
2024-04-12T20:39:22.009Z,21.60
2024-04-12T20:41:56.090Z,21.60
2024-04-12T20:44:27.109Z,21.50
2024-04-12T20:46:56.224Z,21.50
2024-04-12T20:49:24.297Z,21.40
2024-04-12T20:51:54.731Z,21.40
2024-04-12T20:54:24.736Z,21.40
2024-04-12T20:56:51.709Z,21.40
2024-04-12T20:59:21.915Z,21.30
2024-04-12T21:01:52.208Z,21.40
2024-04-12T21:04:21.200Z,21.30
2024-04-12T21:06:49.619Z,21.20
2024-04-12T21:09:18.071Z,21.20
2024-04-12T21:11:48.692Z,21.20
2024-04-12T21:14:15.890Z,21.10
2024-04-12T21:16:44.827Z,21.10
2024-04-12T21:19:13.342Z,21.10
2024-04-12T21:21:40.711Z,21.00
2024-04-12T21:24:08.301Z,21.00
2024-04-12T21:26:35.554Z,21.00
2024-04-12T21:29:03.004Z,21.00
2024-04-12T21:31:29.973Z,21.00
2024-04-12T21:33:57.045Z,20.90
2024-04-12T21:36:26.165Z,20.90
2024-04-12T21:38:59.369Z,20.90
2024-04-12T21:41:26.775Z,20.90
2024-04-12T21:43:54.337Z,20.80
2024-04-12T21:46:23.541Z,20.80
2024-04-12T21:48:52.203Z,20.80
2024-04-12T21:51:28.222Z,20.80
2024-04-12T21:53:55.493Z,20.80
2024-04-12T21:56:22.872Z,20.60
2024-04-12T21:58:51.040Z,20.70
2024-04-12T22:01:19.450Z,20.60
2024-04-12T22:03:47.027Z,20.50
2024-04-12T22:06:14.396Z,20.60
2024-04-12T22:08:41.936Z,20.50
2024-04-12T22:11:09.674Z,20.50
2024-04-12T22:13:38.188Z,20.50
2024-04-12T22:16:07.842Z,20.40
2024-04-12T22:18:36.550Z,20.40
2024-04-12T22:21:10.028Z,20.30
2024-04-12T22:23:39.536Z,20.20
2024-04-12T22:26:14.583Z,20.20
2024-04-12T22:28:43.206Z,20.30
2024-04-12T22:31:17.400Z,20.10
2024-04-12T22:33:52.593Z,20.20
2024-04-12T22:36:20.809Z,20.20
2024-04-12T22:38:48.800Z,20.20
2024-04-12T22:41:15.922Z,20.10
2024-04-12T22:43:45.306Z,20.10
2024-04-12T22:46:12.845Z,20.10
2024-04-12T22:48:41.570Z,20.10
2024-04-12T22:51:16.417Z,20.00
2024-04-12T22:53:43.494Z,20.00
2024-04-12T22:56:10.934Z,20.00
2024-04-12T22:58:37.878Z,20.00
2024-04-12T23:01:05.040Z,19.90
2024-04-12T23:03:33.077Z,19.90
2024-04-12T23:06:02.881Z,19.80
2024-04-12T23:08:29.870Z,19.90
2024-04-12T23:10:56.871Z,19.90
2024-04-12T23:13:23.945Z,19.90
2024-04-12T23:15:50.906Z,19.80
2024-04-12T23:18:17.916Z,19.80
2024-04-12T23:20:53.657Z,19.70
2024-04-12T23:23:20.908Z,19.70
2024-04-12T23:25:47.896Z,19.70
2024-04-12T23:28:15.229Z,19.70
2024-04-12T23:30:42.349Z,19.70
2024-04-12T23:33:10.020Z,19.70
2024-04-12T23:35:37.022Z,19.70
2024-04-12T23:38:04.235Z,19.60
2024-04-12T23:40:31.317Z,19.60
2024-04-12T23:42:58.288Z,19.60
2024-04-12T23:45:25.318Z,19.50
2024-04-12T23:47:52.389Z,19.50
2024-04-12T23:50:19.444Z,19.40
2024-04-12T23:52:46.426Z,19.40
2024-04-12T23:55:13.393Z,19.40
2024-04-12T23:57:40.358Z,19.40
